createdAt,value
2019-06-08T00:00:13.194Z,99.90
2019-06-08T00:02:41.786Z,99.90
2019-06-08T00:05:10.819Z,99.90
2019-06-08T00:07:39.553Z,99.90
2019-06-08T00:10:08.659Z,99.90
2019-06-08T00:12:37.270Z,99.90
2019-06-08T00:15:07.158Z,99.90
2019-06-08T00:17:39.000Z,99.90
2019-06-08T00:20:07.822Z,99.90
2019-06-08T00:22:36.464Z,99.90
2019-06-08T00:25:05.677Z,99.90
2019-06-08T00:27:34.344Z,99.90
2019-06-08T00:30:04.259Z,99.90
2019-06-08T00:32:33.336Z,99.90
2019-06-08T00:35:01.987Z,99.90
2019-06-08T00:37:30.713Z,99.90
2019-06-08T00:39:59.311Z,99.90
2019-06-08T00:42:27.955Z,99.90
2019-06-08T00:44:56.592Z,99.90
2019-06-08T00:47:26.774Z,99.90
2019-06-08T00:49:55.660Z,99.90
2019-06-08T00:52:25.567Z,99.90
2019-06-08T00:54:54.630Z,99.90
2019-06-08T00:57:23.880Z,99.90
2019-06-08T00:59:51.823Z,99.90
2019-06-08T01:02:20.441Z,99.90
2019-06-08T01:04:49.087Z,99.90
2019-06-08T01:07:17.908Z,99.90
2019-06-08T01:09:46.633Z,99.90
2019-06-08T01:12:15.230Z,99.90
2019-06-08T01:14:43.929Z,99.90
2019-06-08T01:17:12.610Z,99.90
2019-06-08T01:19:41.678Z,99.90
2019-06-08T01:22:10.407Z,99.90
2019-06-08T01:24:38.978Z,99.90
2019-06-08T01:27:07.583Z,99.90
2019-06-08T01:29:36.144Z,99.90
2019-06-08T01:32:04.798Z,99.90
2019-06-08T01:34:33.453Z,99.90
2019-06-08T01:37:02.114Z,99.90
2019-06-08T01:39:32.446Z,99.90
2019-06-08T01:42:01.144Z,99.90
2019-06-08T01:44:30.095Z,99.90
2019-06-08T01:46:58.842Z,99.90
2019-06-08T01:49:28.418Z,99.90
2019-06-08T01:51:57.246Z,99.90
2019-06-08T01:54:26.949Z,99.90
2019-06-08T01:56:55.637Z,99.90
2019-06-08T01:59:25.220Z,99.90
2019-06-08T02:01:53.910Z,99.90
2019-06-08T02:04:23.881Z,99.90
2019-06-08T02:06:52.622Z,99.90
2019-06-08T02:09:21.283Z,99.90
2019-06-08T02:11:50.018Z,99.90
2019-06-08T02:14:18.578Z,99.90
2019-06-08T02:16:47.203Z,99.90
2019-06-08T02:19:15.741Z,99.90
2019-06-08T02:21:44.375Z,99.90
2019-06-08T02:24:12.977Z,99.90
2019-06-08T02:26:41.646Z,99.90
2019-06-08T02:29:10.244Z,99.90
2019-06-08T02:31:38.851Z,99.90
2019-06-08T02:34:07.607Z,99.90
2019-06-08T02:36:37.868Z,99.90
2019-06-08T02:39:08.317Z,99.90
2019-06-08T02:41:37.566Z,99.90
2019-06-08T02:44:06.591Z,99.90
2019-06-08T02:46:35.977Z,99.90
2019-06-08T02:49:05.844Z,99.90
2019-06-08T02:51:36.426Z,99.90
2019-06-08T02:54:05.859Z,99.90
2019-06-08T02:56:36.800Z,99.90
2019-06-08T02:59:06.031Z,99.90
2019-06-08T03:01:36.632Z,99.90
2019-06-08T03:04:06.587Z,99.90
2019-06-08T03:06:39.381Z,99.90
2019-06-08T03:09:08.599Z,99.90
2019-06-08T03:11:38.993Z,99.90
2019-06-08T03:14:07.589Z,99.90
2019-06-08T03:16:38.391Z,99.90
2019-06-08T03:19:21.175Z,99.90
2019-06-08T03:21:38.332Z,99.90
2019-06-08T03:24:07.143Z,99.90
2019-06-08T03:26:36.722Z,99.90
2019-06-08T03:29:06.073Z,99.90
2019-06-08T03:31:39.155Z,99.90
2019-06-08T03:34:05.030Z,99.90
2019-06-08T03:36:37.389Z,99.90
2019-06-08T03:39:05.445Z,99.90
2019-06-08T03:41:34.783Z,99.90
2019-06-08T03:44:04.981Z,99.90
2019-06-08T03:46:34.446Z,99.90
2019-06-08T03:49:03.245Z,99.90
2019-06-08T03:51:35.167Z,99.90
2019-06-08T03:54:02.210Z,99.50
2019-06-08T03:56:30.828Z,96.90
2019-06-08T03:58:59.421Z,95.90
2019-06-08T04:01:27.987Z,93.30
2019-06-08T04:03:59.876Z,91.70
2019-06-08T04:06:26.907Z,93.30
2019-06-08T04:08:55.526Z,92.20
2019-06-08T04:11:24.115Z,91.80
2019-06-08T04:13:52.685Z,91.80
2019-06-08T04:16:22.385Z,92.90
2019-06-08T04:18:50.928Z,92.30
2019-06-08T04:21:19.535Z,85.80
2019-06-08T04:23:48.118Z,78.80
2019-06-08T04:26:16.719Z,76.30
2019-06-08T04:28:47.198Z,71.00
2019-06-08T04:31:15.586Z,69.70
2019-06-08T04:33:44.354Z,73.70
2019-06-08T04:36:13.050Z,77.80
2019-06-08T04:38:43.159Z,82.10
2019-06-08T04:41:12.109Z,86.50
2019-06-08T04:43:42.854Z,88.40
2019-06-08T04:46:11.867Z,90.20
2019-06-08T04:48:40.681Z,89.40
2019-06-08T04:51:09.926Z,87.60
2019-06-08T04:53:38.618Z,86.10
2019-06-08T04:56:07.455Z,88.20
2019-06-08T04:58:36.007Z,90.70
2019-06-08T05:01:04.671Z,92.30
2019-06-08T05:03:33.231Z,93.30
2019-06-08T05:06:01.858Z,85.30
2019-06-08T05:08:30.420Z,80.80
2019-06-08T05:10:59.013Z,79.50
2019-06-08T05:13:27.608Z,80.40
2019-06-08T05:15:56.198Z,84.50
2019-06-08T05:18:26.073Z,82.00
2019-06-08T05:20:54.996Z,75.40
2019-06-08T05:23:23.543Z,70.10
2019-06-08T05:25:52.145Z,66.60
2019-06-08T05:28:20.771Z,63.20
2019-06-08T05:30:49.687Z,66.70
2019-06-08T05:33:17.693Z,68.80
2019-06-08T05:35:47.527Z,69.90
2019-06-08T05:38:16.269Z,69.50
2019-06-08T05:40:45.597Z,68.00
2019-06-08T05:43:14.386Z,65.40
2019-06-08T05:45:43.800Z,63.00
2019-06-08T05:48:12.393Z,58.60
2019-06-08T05:50:54.906Z,56.30
2019-06-08T05:53:11.290Z,52.50
2019-06-08T05:55:39.854Z,49.90
2019-06-08T05:58:08.662Z,45.40
2019-06-08T06:00:37.415Z,44.10
2019-06-08T06:03:06.135Z,42.20
2019-06-08T06:05:34.822Z,43.70
2019-06-08T06:08:15.382Z,44.60
2019-06-08T06:10:33.722Z,42.70
2019-06-08T06:13:02.270Z,40.30
2019-06-08T06:15:31.010Z,38.10
2019-06-08T06:17:59.593Z,39.10
2019-06-08T06:20:28.343Z,39.60
2019-06-08T06:22:58.609Z,39.40
2019-06-08T06:25:27.360Z,41.20
2019-06-08T06:27:55.233Z,43.40
2019-06-08T06:30:23.873Z,46.00
2019-06-08T06:32:51.962Z,45.50
2019-06-08T06:35:20.724Z,43.30
2019-06-08T06:37:50.161Z,41.30
2019-06-08T06:40:19.007Z,38.70
2019-06-08T06:42:48.010Z,38.30
2019-06-08T06:45:17.013Z,36.60
2019-06-08T06:47:46.447Z,34.90
2019-06-08T06:50:15.334Z,34.00
2019-06-08T06:52:44.601Z,36.00
2019-06-08T06:55:13.645Z,34.80
2019-06-08T06:57:43.478Z,34.70
2019-06-08T07:00:13.206Z,34.60
2019-06-08T07:02:41.772Z,36.50
2019-06-08T07:05:09.895Z,39.00
2019-06-08T07:07:38.443Z,41.40
2019-06-08T07:10:07.812Z,38.40
2019-06-08T07:12:36.652Z,39.20
2019-06-08T07:15:09.697Z,37.20
2019-06-08T07:17:38.345Z,37.50
2019-06-08T07:20:07.613Z,35.90
2019-06-08T07:22:36.305Z,36.10
2019-06-08T07:25:06.006Z,39.40
2019-06-08T07:27:34.572Z,40.40
2019-06-08T07:30:03.586Z,40.20
2019-06-08T07:32:32.854Z,40.00
2019-06-08T07:35:01.413Z,37.50
2019-06-08T07:37:29.275Z,38.00
2019-06-08T07:39:57.924Z,37.40
2019-06-08T07:42:25.795Z,38.40
2019-06-08T07:44:55.102Z,37.90
2019-06-08T07:47:23.894Z,35.40
2019-06-08T07:49:53.281Z,33.90
2019-06-08T07:52:22.000Z,34.30
2019-06-08T07:54:50.954Z,34.60
2019-06-08T07:57:19.793Z,36.10
2019-06-08T07:59:49.184Z,35.50
2019-06-08T08:02:18.603Z,36.90
2019-06-08T08:04:46.455Z,40.50
2019-06-08T08:07:15.113Z,38.10
2019-06-08T08:09:43.029Z,42.40
2019-06-08T08:12:12.389Z,38.40
2019-06-08T08:14:41.162Z,37.90
2019-06-08T08:17:09.011Z,35.90
2019-06-08T08:19:37.665Z,36.50
2019-06-08T08:22:19.510Z,35.60
2019-06-08T08:24:35.769Z,36.60
2019-06-08T08:27:03.952Z,37.70
2019-06-08T08:29:32.702Z,38.30
2019-06-08T08:32:02.031Z,39.20
2019-06-08T08:34:30.768Z,40.00
2019-06-08T08:37:05.307Z,38.80
2019-06-08T08:39:28.725Z,40.80
2019-06-08T08:42:02.951Z,39.50
2019-06-08T08:44:28.357Z,38.10
2019-06-08T08:47:00.546Z,39.40
2019-06-08T08:49:28.126Z,39.40
2019-06-08T08:51:59.004Z,38.40
2019-06-08T08:54:27.557Z,36.30
2019-06-08T08:57:01.641Z,34.40
2019-06-08T08:59:28.044Z,32.70
2019-06-08T09:01:59.178Z,34.40
2019-06-08T09:04:27.745Z,35.50
2019-06-08T09:07:02.382Z,37.00
2019-06-08T09:09:28.863Z,38.00
2019-06-08T09:12:02.194Z,38.00
2019-06-08T09:14:28.080Z,36.40
2019-06-08T09:16:59.810Z,37.70
2019-06-08T09:19:28.103Z,40.50
2019-06-08T09:21:58.953Z,41.70
2019-06-08T09:24:28.622Z,40.10
2019-06-08T09:27:00.871Z,38.00
2019-06-08T09:29:28.882Z,38.50
2019-06-08T09:31:59.072Z,37.00
2019-06-08T09:34:28.377Z,40.30
2019-06-08T09:37:00.117Z,40.10
2019-06-08T09:39:28.624Z,38.60
2019-06-08T09:42:00.382Z,40.90
2019-06-08T09:44:28.167Z,39.50
2019-06-08T09:47:01.985Z,41.70
2019-06-08T09:49:28.000Z,42.80
2019-06-08T09:52:00.356Z,43.00
2019-06-08T09:54:28.292Z,41.60
2019-06-08T09:57:00.923Z,41.90
2019-06-08T09:59:28.509Z,42.60
2019-06-08T10:02:03.615Z,41.00
2019-06-08T10:04:29.126Z,43.20
2019-06-08T10:07:00.226Z,42.80
2019-06-08T10:09:28.480Z,44.90
2019-06-08T10:11:59.579Z,44.00
2019-06-08T10:14:28.211Z,41.70
2019-06-08T10:16:59.150Z,42.40
2019-06-08T10:19:27.181Z,45.00
2019-06-08T10:21:56.908Z,47.40
2019-06-08T10:24:25.947Z,49.40
2019-06-08T10:26:55.203Z,50.20
2019-06-08T10:29:23.900Z,51.40
2019-06-08T10:31:52.468Z,52.60
2019-06-08T10:34:21.161Z,50.90
2019-06-08T10:36:49.792Z,51.20
2019-06-08T10:39:18.512Z,51.80
2019-06-08T10:41:51.267Z,52.80
2019-06-08T10:44:18.268Z,51.80
2019-06-08T10:46:48.231Z,52.40
2019-06-08T10:49:18.680Z,50.80
2019-06-08T10:51:48.741Z,50.30
2019-06-08T10:54:17.628Z,49.90
2019-06-08T10:56:48.414Z,51.00
2019-06-08T10:59:18.515Z,50.90
2019-06-08T11:01:46.757Z,50.60
2019-06-08T11:04:15.696Z,51.50
2019-06-08T11:06:44.455Z,50.60
2019-06-08T11:09:15.258Z,51.00
2019-06-08T11:11:43.476Z,52.30
2019-06-08T11:14:13.185Z,51.70
2019-06-08T11:16:42.357Z,51.20
2019-06-08T11:19:13.218Z,50.80
2019-06-08T11:21:41.355Z,52.40
2019-06-08T11:24:21.651Z,52.50
2019-06-08T11:26:40.507Z,54.40
2019-06-08T11:29:12.206Z,53.40
2019-06-08T11:31:39.555Z,53.80
2019-06-08T11:34:08.583Z,52.70
2019-06-08T11:36:39.476Z,53.60
2019-06-08T11:39:11.330Z,51.00
2019-06-08T11:41:39.058Z,50.40
2019-06-08T11:44:11.890Z,50.40
2019-06-08T11:46:38.790Z,51.80
2019-06-08T11:49:11.685Z,51.20
2019-06-08T11:51:38.438Z,50.40
2019-06-08T11:54:25.479Z,51.70
2019-06-08T11:56:40.239Z,51.60
2019-06-08T11:59:11.104Z,52.70
2019-06-08T12:01:38.081Z,53.60
2019-06-08T12:04:07.741Z,51.40
2019-06-08T12:06:37.689Z,49.60
2019-06-08T12:09:10.412Z,50.20
2019-06-08T12:11:38.294Z,50.20
2019-06-08T12:14:09.195Z,49.50
2019-06-08T12:16:37.882Z,50.00
2019-06-08T12:19:10.012Z,50.80
2019-06-08T12:21:37.109Z,50.20
2019-06-08T12:24:06.194Z,50.10
2019-06-08T12:26:35.043Z,49.40
2019-06-08T12:29:05.092Z,49.80
2019-06-08T12:31:33.758Z,50.80
2019-06-08T12:34:02.348Z,50.40
2019-06-08T12:36:30.938Z,49.60
2019-06-08T12:38:59.605Z,50.50
2019-06-08T12:41:31.180Z,50.70
2019-06-08T12:43:58.585Z,50.80
2019-06-08T12:46:28.053Z,50.70
2019-06-08T12:48:58.330Z,51.00
2019-06-08T12:51:28.091Z,50.40
2019-06-08T12:53:59.887Z,50.10
2019-06-08T12:56:28.786Z,49.90
2019-06-08T12:58:57.910Z,50.50
2019-06-08T13:01:27.981Z,50.60
2019-06-08T13:03:58.110Z,49.60
2019-06-08T13:06:28.241Z,50.50
2019-06-08T13:08:57.734Z,50.60
2019-06-08T13:11:28.272Z,50.00
2019-06-08T13:13:56.942Z,49.50
2019-06-08T13:16:28.225Z,48.90
2019-06-08T13:18:58.516Z,49.00
2019-06-08T13:21:34.609Z,48.50
2019-06-08T13:23:58.144Z,49.50
2019-06-08T13:26:28.640Z,49.60
2019-06-08T13:28:58.341Z,49.80
2019-06-08T13:31:28.872Z,50.10
2019-06-08T13:33:58.651Z,50.40
2019-06-08T13:36:29.536Z,49.80
2019-06-08T13:38:57.531Z,49.20
2019-06-08T13:41:29.550Z,49.30
2019-06-08T13:43:58.117Z,49.80
2019-06-08T13:46:28.214Z,51.10
2019-06-08T13:48:58.544Z,51.20
2019-06-08T13:51:28.229Z,50.60
2019-06-08T13:53:58.096Z,50.40
2019-06-08T13:56:28.428Z,51.30
2019-06-08T13:58:57.495Z,51.70
2019-06-08T14:01:30.377Z,51.30
2019-06-08T14:03:58.158Z,52.90
2019-06-08T14:06:28.407Z,53.70
2019-06-08T14:08:58.010Z,53.50
2019-06-08T14:11:28.049Z,53.20
2019-06-08T14:14:00.777Z,52.90
2019-06-08T14:16:29.459Z,53.40
2019-06-08T14:18:57.435Z,53.80
2019-06-08T14:21:34.192Z,54.30
2019-06-08T14:23:58.597Z,55.10
2019-06-08T14:26:26.507Z,55.80
2019-06-08T14:28:55.146Z,56.20
2019-06-08T14:31:25.312Z,55.90
2019-06-08T14:33:54.168Z,56.30
2019-06-08T14:36:24.068Z,55.80
2019-06-08T14:38:52.934Z,56.40
2019-06-08T14:41:22.694Z,56.60
2019-06-08T14:43:51.364Z,56.00
2019-06-08T14:46:21.129Z,56.50
2019-06-08T14:48:50.183Z,56.60
2019-06-08T14:51:18.859Z,55.90
2019-06-08T14:53:48.543Z,56.00
2019-06-08T14:56:19.459Z,56.40
2019-06-08T14:58:48.307Z,54.40
2019-06-08T15:01:19.441Z,53.90
2019-06-08T15:03:48.234Z,55.40
2019-06-08T15:06:17.873Z,54.50
2019-06-08T15:08:52.761Z,53.50
2019-06-08T15:11:21.452Z,53.10
2019-06-08T15:13:50.033Z,53.40
2019-06-08T15:16:19.692Z,53.50
2019-06-08T15:18:48.443Z,53.70
2019-06-08T15:21:17.915Z,53.90
2019-06-08T15:23:47.745Z,54.00
2019-06-08T15:26:23.983Z,54.20
2019-06-08T15:28:48.557Z,54.60
2019-06-08T15:31:18.393Z,54.80
2019-06-08T15:33:48.161Z,54.20
2019-06-08T15:36:20.314Z,55.60
2019-06-08T15:38:47.991Z,54.80
2019-06-08T15:41:20.742Z,53.70
2019-06-08T15:43:48.101Z,53.70
2019-06-08T15:46:18.365Z,54.30
2019-06-08T15:48:48.512Z,54.20
2019-06-08T15:51:17.357Z,54.60
2019-06-08T15:53:47.698Z,54.80
2019-06-08T15:56:18.540Z,54.70
2019-06-08T15:58:48.703Z,55.00
2019-06-08T16:01:16.917Z,55.30
2019-06-08T16:03:45.510Z,55.30
2019-06-08T16:06:14.110Z,55.50
2019-06-08T16:08:42.677Z,56.00
2019-06-08T16:11:11.306Z,56.10
2019-06-08T16:13:39.885Z,56.80
2019-06-08T16:16:08.454Z,57.90
2019-06-08T16:18:37.272Z,57.50
2019-06-08T16:21:05.885Z,57.90
2019-06-08T16:23:35.714Z,58.60
2019-06-08T16:26:04.687Z,57.50
2019-06-08T16:28:34.170Z,57.70
2019-06-08T16:31:05.470Z,57.10
2019-06-08T16:33:33.393Z,57.80
2019-06-08T16:36:02.483Z,57.10
2019-06-08T16:38:32.363Z,57.30
2019-06-08T16:41:01.124Z,57.30
2019-06-08T16:43:30.961Z,57.30
2019-06-08T16:45:59.725Z,58.10
2019-06-08T16:48:28.311Z,57.70
2019-06-08T16:50:57.036Z,59.80
2019-06-08T16:53:25.629Z,59.20
2019-06-08T16:55:54.289Z,59.40
2019-06-08T16:58:22.951Z,60.50
2019-06-08T17:00:51.615Z,62.60
2019-06-08T17:03:20.169Z,64.00
2019-06-08T17:05:48.769Z,64.10
2019-06-08T17:08:17.423Z,65.20
2019-06-08T17:10:46.115Z,66.10
2019-06-08T17:13:14.778Z,66.80
2019-06-08T17:15:43.510Z,67.40
2019-06-08T17:18:12.104Z,68.70
2019-06-08T17:20:40.787Z,69.60
2019-06-08T17:23:09.408Z,69.50
2019-06-08T17:25:38.779Z,70.00
2019-06-08T17:28:07.528Z,70.90
2019-06-08T17:30:37.522Z,72.30
2019-06-08T17:33:06.429Z,73.00
2019-06-08T17:35:35.583Z,73.20
2019-06-08T17:38:03.473Z,73.90
2019-06-08T17:40:33.848Z,73.70
2019-06-08T17:43:02.857Z,74.30
2019-06-08T17:45:32.357Z,75.00
2019-06-08T17:48:01.222Z,75.70
2019-06-08T17:50:29.941Z,76.90
2019-06-08T17:52:58.561Z,77.50
2019-06-08T17:55:27.250Z,78.00
2019-06-08T17:57:55.814Z,77.80
2019-06-08T18:00:24.844Z,77.70
2019-06-08T18:02:52.961Z,78.50
2019-06-08T18:05:21.610Z,78.50
2019-06-08T18:07:50.172Z,78.70
2019-06-08T18:10:18.906Z,78.50
2019-06-08T18:12:49.328Z,77.70
2019-06-08T18:15:17.773Z,77.90
2019-06-08T18:17:48.249Z,79.40
2019-06-08T18:20:17.768Z,81.80
2019-06-08T18:22:49.272Z,83.00
2019-06-08T18:25:17.746Z,85.10
2019-06-08T18:28:02.624Z,86.70
2019-06-08T18:30:19.127Z,89.90
2019-06-08T18:32:48.576Z,89.80
2019-06-08T18:35:18.228Z,87.60
2019-06-08T18:37:48.657Z,84.80
2019-06-08T18:40:18.095Z,89.30
2019-06-08T18:42:48.691Z,90.70
2019-06-08T18:45:18.609Z,90.40
2019-06-08T18:47:48.427Z,89.70
2019-06-08T18:50:18.178Z,91.80
2019-06-08T18:52:49.469Z,91.40
2019-06-08T18:55:18.313Z,99.50
2019-06-08T18:57:48.978Z,98.90
2019-06-08T19:00:17.986Z,95.10
2019-06-08T19:02:53.583Z,95.00
2019-06-08T19:05:20.786Z,93.10
2019-06-08T19:07:50.016Z,93.40
2019-06-08T19:10:23.398Z,95.10
2019-06-08T19:12:51.990Z,95.20
2019-06-08T19:15:23.734Z,95.20
2019-06-08T19:17:54.418Z,96.30
2019-06-08T19:20:22.694Z,95.30
2019-06-08T19:22:54.104Z,96.40
2019-06-08T19:25:21.662Z,96.30
2019-06-08T19:27:53.056Z,96.00
2019-06-08T19:30:24.213Z,96.90
2019-06-08T19:32:52.432Z,97.80
2019-06-08T19:35:21.218Z,96.30
2019-06-08T19:37:53.625Z,97.40
2019-06-08T19:40:20.241Z,98.00
2019-06-08T19:42:56.850Z,99.30
2019-06-08T19:45:19.386Z,99.90
2019-06-08T19:47:48.840Z,99.70
2019-06-08T19:50:17.648Z,98.50
2019-06-08T19:52:51.620Z,99.90
2019-06-08T19:55:18.151Z,99.90
2019-06-08T19:57:49.064Z,99.90
2019-06-08T20:00:18.111Z,99.90
2019-06-08T20:02:47.787Z,99.90
2019-06-08T20:05:17.489Z,99.90
2019-06-08T20:07:47.020Z,99.90
2019-06-08T20:10:17.628Z,99.90
2019-06-08T20:12:49.237Z,99.90
2019-06-08T20:15:18.425Z,99.90
2019-06-08T20:17:48.934Z,99.90
2019-06-08T20:20:18.663Z,99.90
2019-06-08T20:22:50.342Z,99.90
2019-06-08T20:25:17.959Z,99.90
2019-06-08T20:27:49.753Z,99.90
2019-06-08T20:30:17.409Z,98.80
2019-06-08T20:32:46.565Z,97.50
2019-06-08T20:35:17.456Z,97.30
2019-06-08T20:37:46.003Z,97.00
2019-06-08T20:40:14.903Z,97.30
2019-06-08T20:42:44.182Z,97.50
2019-06-08T20:45:13.117Z,98.00
2019-06-08T20:47:42.383Z,98.50
2019-06-08T20:50:11.593Z,98.70
2019-06-08T20:52:40.246Z,97.30
2019-06-08T20:55:09.055Z,98.50
2019-06-08T20:57:37.650Z,98.00
2019-06-08T21:00:11.890Z,99.90
2019-06-08T21:02:39.606Z,99.90
2019-06-08T21:05:09.065Z,99.90
2019-06-08T21:07:37.634Z,99.90
2019-06-08T21:10:08.587Z,99.90
2019-06-08T21:12:37.918Z,99.90
2019-06-08T21:15:07.628Z,99.90
2019-06-08T21:17:38.370Z,99.90
2019-06-08T21:20:08.542Z,99.90
2019-06-08T21:22:37.404Z,99.90
2019-06-08T21:25:08.961Z,99.90
2019-06-08T21:27:38.453Z,99.90
2019-06-08T21:30:20.279Z,99.90
2019-06-08T21:32:40.633Z,99.90
2019-06-08T21:35:09.536Z,99.90
2019-06-08T21:37:38.174Z,99.90
2019-06-08T21:40:08.683Z,99.90
2019-06-08T21:42:37.384Z,99.90
2019-06-08T21:45:09.685Z,99.90
2019-06-08T21:47:38.539Z,99.90
2019-06-08T21:50:08.305Z,99.90
2019-06-08T21:52:37.049Z,99.90
2019-06-08T21:55:07.350Z,99.90
2019-06-08T21:57:37.137Z,99.90
2019-06-08T22:00:22.909Z,99.90
2019-06-08T22:02:38.291Z,99.90
2019-06-08T22:05:08.247Z,99.90
2019-06-08T22:07:37.735Z,99.90
2019-06-08T22:10:07.524Z,99.90
2019-06-08T22:12:39.963Z,99.90
2019-06-08T22:15:07.984Z,99.90
2019-06-08T22:17:38.307Z,99.90
2019-06-08T22:20:09.261Z,99.90
2019-06-08T22:22:38.012Z,99.90
2019-06-08T22:25:08.283Z,99.90
2019-06-08T22:27:38.127Z,99.90
2019-06-08T22:30:13.460Z,99.90
2019-06-08T22:32:38.605Z,99.90
2019-06-08T22:35:08.170Z,99.90
2019-06-08T22:37:38.060Z,99.90
2019-06-08T22:40:08.402Z,99.90
2019-06-08T22:42:37.759Z,99.90
2019-06-08T22:45:08.369Z,99.90
2019-06-08T22:47:38.765Z,99.90
2019-06-08T22:50:08.215Z,99.90
2019-06-08T22:52:37.508Z,99.90
2019-06-08T22:55:10.598Z,99.90
2019-06-08T22:57:37.718Z,99.90
2019-06-08T23:00:14.263Z,99.90
2019-06-08T23:02:38.428Z,99.90
2019-06-08T23:05:08.944Z,99.90
2019-06-08T23:07:38.121Z,99.90
2019-06-08T23:10:10.868Z,99.90
2019-06-08T23:12:39.421Z,99.90
2019-06-08T23:15:08.490Z,99.90
2019-06-08T23:17:38.773Z,99.90
2019-06-08T23:20:08.722Z,99.90
2019-06-08T23:22:38.395Z,99.90
2019-06-08T23:25:09.469Z,99.90
2019-06-08T23:27:38.154Z,99.90
2019-06-08T23:30:10.121Z,99.90
2019-06-08T23:32:38.954Z,99.90
2019-06-08T23:35:09.545Z,99.90
2019-06-08T23:37:38.557Z,99.90
2019-06-08T23:40:08.006Z,99.90
2019-06-08T23:42:38.350Z,99.90
2019-06-08T23:45:10.567Z,99.90
2019-06-08T23:47:38.737Z,99.90
2019-06-08T23:50:10.938Z,99.90
2019-06-08T23:52:38.436Z,99.90
2019-06-08T23:55:11.389Z,99.90
2019-06-08T23:57:38.191Z,99.90
